• Join FlightAware (Why Join?)
  • Login
  • US Flag 
06:44PM EDT


 

Airport Tracker/Info


-or-


 

Live Flight TrackerFlight Track Log ✈ UAL3776 ✈ 11-Apr-2013 ✈ KMIA - KIAD

Flight Track Log - Related Links

Times and Time Zones

All times are in EDT time to prevent confusion due to time zone crossing. See the UAL3776 flight status page for this flight to view local times or setup timezone preferences in your user account.

Time Position Orientation Groundspeed Altitude Reporting Facility
EDT Latitude Longitude Course Direction KTS MPH feet Rate Location/Type
11:43AM 25.7983 -80.2697 77° East 145 167 800  Level Miami Center
11:44AM 25.8075 -80.2264 77° East 199 229 1,900 1,680 Climbing Miami Center
11:45AM 25.8242 -80.1436 77° East 277 319 4,100 2,280 Climbing Miami Center
11:46AM 25.9203 -80.1464 359° North 298 343 7,500 2,580 Climbing Miami Center
11:47AM 25.9858 -80.2036 322° Northwest 277 319 10,100 2,040 Climbing Miami Center
11:48AM 26.0533 -80.2656 321° Northwest 294 338 11,600 1,680 Climbing Miami Center
11:49AM 26.1267 -80.3347 320° Northwest 321 369 13,500 1,860 Climbing Miami Center
11:50AM 26.2025 -80.4017 322° Northwest 342 394 15,400 1,740 Climbing Miami Center
11:51AM 26.2831 -80.4389 337° Northwest 342 394 17,100 1,680 Climbing Miami Center
11:52AM 26.3906 -80.4839 339° North 365 420 18,800 1,560 Climbing Miami Center
11:53AM 26.4817 -80.5169 342° North 377 434 20,300 1,440 Climbing Miami Center
11:54AM 26.5931 -80.5622 340° North 387 445 21,800 1,500 Climbing Miami Center
11:55AM 26.6861 -80.5978 341° North 387 445 23,300 1,260 Climbing Miami Center
11:56AM 26.7897 -80.6358 342° North 387 445 24,400 1,020 Climbing Miami Center
11:57AM 26.8931 -80.6786 340° North 387 445 25,400 1,200 Climbing Miami Center
11:58AM 27.0006 -80.7150 343° North 392 451 26,800 1,140 Climbing Miami Center
11:59AM 27.1106 -80.7419 348° North 392 451 27,700 780 Climbing Miami Center
12:00PM 27.2225 -80.7689 348° North 398 458 28,400 660 Climbing Miami Center
12:01PM 27.3472 -80.7942 350° North 408 470 29,100 660 Climbing Miami Center
12:02PM 27.4633 -80.8217 348° North 413 475 29,800 660 Climbing Miami Center
12:03PM 27.5814 -80.8492 348° North 420 483 30,500 780 Climbing Miami Center
12:04PM 27.6975 -80.8767 348° North 426 490 31,400 900 Climbing Miami Center
12:05PM 27.8117 -80.9042 348° North 426 490 32,400 960 Climbing Miami Center
12:06PM 27.9258 -80.9294 349° North 421 484 33,400 1,080 Climbing Miami Center
12:07PM 28.0356 -80.9569 348° North 416 479 34,600 960 Climbing Miami Center
12:08PM 28.1475 -80.9819 349° North 405 466 35,400 720 Climbing Miami Center
12:09PM 28.2553 -81.0072 348° North 405 466 36,100 600 Climbing Miami Center
12:10PM 28.3631 -81.0325 348° North 400 460 36,600 420 Climbing Miami Center
12:11PM 28.4708 -81.0578 348° North 395 455 37,000 240 Climbing Miami Center
12:12PM 28.5272 -81.0781 342° North 394 453 37,000  Level Jacksonville Center
12:13PM 28.6278 -81.0997 349° North 380 437 37,000  Level Jacksonville Center
12:14PM 28.7431 -81.1261 349° North 394 453 37,000  Level Jacksonville Center
12:15PM 28.8603 -81.1550 348° North 411 473 37,000  Level Jacksonville Center
12:16PM 28.9756 -81.1836 348° North 416 479 37,000  Level Jacksonville Center
12:17PM 29.0883 -81.2056 350° North 416 479 37,000  Level Jacksonville Center
12:18PM 29.2036 -81.2369 347° North 416 479 37,000  Level Jacksonville Center
12:19PM 29.3144 -81.2611 349° North 410 472 37,000  Level Jacksonville Center
12:20PM 29.4278 -81.2928 346° North 415 478 37,000  Level Jacksonville Center
12:21PM 29.5533 -81.3217 349° North 415 478 37,000  Level Jacksonville Center
12:22PM 29.6683 -81.3486 348° North 415 478 37,000  Level Jacksonville Center
12:23PM 29.7814 -81.3756 348° North 415 478 37,000  Level Jacksonville Center
12:24PM 29.8967 -81.4022 349° North 415 478 37,000  Level Jacksonville Center
12:25PM 30.0139 -81.4317 348° North 415 478 37,000  Level Jacksonville Center
12:26PM 30.1292 -81.4611 348° North 415 478 37,000  Level Jacksonville Center
12:27PM 30.2442 -81.4858 349° North 415 478 37,000  Level Jacksonville Center
12:28PM 30.3633 -81.5058 352° North 420 483 37,000  Level Jacksonville Center
12:29PM 30.4886 -81.4969 North 432 497 37,000  Level Jacksonville Center
12:30PM 30.6117 -81.4878 North 432 497 37,000  Level Jacksonville Center
12:31PM 30.7347 -81.4811 North 442 509 37,000  Level Jacksonville Center
12:32PM 30.8600 -81.4694 North 442 509 37,000  Level Jacksonville Center
12:33PM 30.9850 -81.4606 North 442 509 37,000  Level Jacksonville Center
12:34PM 31.1081 -81.4489 North 442 509 37,000  Level Jacksonville Center
12:35PM 31.2333 -81.4397 North 442 509 37,000  Level Jacksonville Center
12:36PM 31.3561 -81.4061 13° North 442 509 37,000  Level Jacksonville Center
12:37PM 31.4744 -81.3408 25° Northeast 453 521 37,000  Level Jacksonville Center
12:38PM 31.5781 -81.2806 26° Northeast 460 529 37,000  Level Jacksonville Center
12:39PM 31.7064 -81.2053 27° Northeast 460 529 37,000  Level Jacksonville Center
12:40PM 31.8244 -81.1369 26° Northeast 465 535 37,000  Level Jacksonville Center
12:41PM 31.9342 -81.0736 26° Northeast 465 535 37,000  Level Jacksonville Center
12:42PM 32.0606 -80.9928 28° Northeast 465 535 37,000  Level Jacksonville Center
12:43PM 32.1703 -80.9317 25° Northeast 471 542 37,000  Level Jacksonville Center
12:44PM 32.2983 -80.8528 28° Northeast 464 534 37,000  Level Jacksonville Center
12:45PM 32.4161 -80.7836 26° Northeast 464 534 37,000  Level Jacksonville Center
12:46PM 32.5194 -80.7219 27° Northeast 459 528 37,000  Level Jacksonville Center
12:47PM 32.6353 -80.6503 28° Northeast 459 528 37,000  Level Jacksonville Center
12:48PM 32.7528 -80.5781 27° Northeast 459 528 37,000  Level Jacksonville Center
12:49PM 32.8683 -80.5083 27° Northeast 459 528 37,000  Level Jacksonville Center
12:50PM 32.9881 -80.4383 26° Northeast 459 528 37,000  Level Jacksonville Center
12:51PM 33.1097 -80.3606 28° Northeast 472 543 37,000  Level Jacksonville Center
12:52PM 33.2419 -80.2847 26° Northeast 479 551 37,000  Level Jacksonville Center
12:53PM 33.3614 -80.2092 28° Northeast 479 551 37,000 -60 Level Jacksonville Center
12:54PM 33.4767 -80.1361 28° Northeast 474 545 36,900  Descending Jacksonville Center
12:55PM 33.5939 -80.0600 28° Northeast 474 545 37,000  Climbing Jacksonville Center
12:56PM 33.7111 -79.9889 27° Northeast 469 540 37,000 -60 Level Jacksonville Center
12:57PM 33.8264 -79.9175 27° Northeast 464 534 36,900 -60 Descending Jacksonville Center
12:58PM 33.9394 -79.8461 28° Northeast 464 534 36,900  Level Jacksonville Center
12:59PM 34.0506 -79.7772 27° Northeast 459 528 37,000  Climbing Jacksonville Center
01:01PM 34.3083 -79.6194 27° Northeast 453 521 37,000  Level Washington Center
01:02PM 34.4275 -79.5575 23° Northeast 453 521 37,000  Level Washington Center
01:03PM 34.5464 -79.4953 23° Northeast 458 527 37,000 -240 Level Washington Center
01:04PM 34.6631 -79.4350 23° Northeast 458 527 36,600 -960 Descending Washington Center
01:05PM 34.7861 -79.3700 23° Northeast 458 527 35,100 -1,500 Descending Washington Center
01:06PM 34.9069 -79.3072 23° Northeast 464 534 33,600 -1,500 Descending Washington Center
01:07PM 35.0258 -79.2417 24° Northeast 464 534 32,100 -1,500 Descending Washington Center
01:08PM 35.1444 -79.1811 23° Northeast 459 528 30,600 -1,560 Descending Washington Center
01:09PM 35.2761 -79.1081 24° Northeast 459 528 29,000 -1,560 Descending Washington Center
01:10PM 35.4011 -79.0422 23° Northeast 482 555 27,500 -1,500 Descending Washington Center
01:11PM 35.5261 -78.9761 23° Northeast 482 555 26,000 -780 Descending Washington Center
01:12PM 35.6531 -78.9100 23° Northeast 482 555 26,000  Level Washington Center
01:13PM 35.7781 -78.8411 24° Northeast 482 555 26,000  Level Washington Center
01:14PM 35.9011 -78.7717 25° Northeast 482 555 26,000  Level Washington Center
01:15PM 36.0239 -78.7047 24° Northeast 482 555 26,000  Level Washington Center
01:16PM 36.1444 -78.6350 25° Northeast 482 555 26,000  Level Washington Center
01:17PM 36.2608 -78.5697 24° Northeast 470 541 26,000  Level Washington Center
01:18PM 36.3772 -78.5019 25° Northeast 465 535 26,000  Level Washington Center
01:19PM 36.4875 -78.4364 26° Northeast 453 521 26,000  Level Washington Center
01:20PM 36.5931 -78.3781 24° Northeast 422 486 26,000  Level Washington Center
01:21PM 36.6861 -78.3219 26° Northeast 416 479 26,000 -300 Level Washington Center
01:22PM 36.7983 -78.2583 24° Northeast 416 479 25,400 -1,140 Descending Washington Center
01:23PM 36.9039 -78.1972 25° Northeast 416 479 23,800 -1,560 Descending Washington Center
01:24PM 37.0094 -78.1356 25° Northeast 416 479 22,300 -900 Descending Washington Center
01:25PM 37.1108 -78.0764 25° Northeast 405 466 22,000 -180 Descending Washington Center
01:26PM 37.2122 -78.0172 25° Northeast 399 459 22,000  Level Washington Center
01:27PM 37.3178 -77.9553 25° Northeast 405 466 22,000  Level Washington Center
01:28PM 37.4256 -77.8906 25° Northeast 410 472 22,000  Level Washington Center
01:29PM 37.5414 -77.8233 25° Northeast 427 491 22,000  Level Washington Center
01:30PM 37.6531 -77.7583 25° Northeast 432 497 22,000 -900 Level Washington Center
01:31PM 37.7650 -77.6906 26° Northeast 432 497 20,300 -2,340 Descending Washington Center
01:32PM 37.8744 -77.6281 24° Northeast 432 497 17,400 -2,880 Descending Washington Center
01:33PM 37.9778 -77.5675 25° Northeast 420 483 14,600 -3,000 Descending Washington Center
01:34PM 38.0744 -77.5067 26° Northeast 394 453 11,400 -2,340 Descending Washington Center
01:35PM 38.1756 -77.4458 25° Northeast 366 421 10,000 -720 Descending Washington Center
01:36PM 38.2514 -77.4056 23° Northeast 334 384 10,000 -300 Level Washington Center
01:37PM 38.3439 -77.3547 North 323 372 9,400 -1,200 Descending Washington Center
01:38PM 38.3684 -77.3500 North  Level FlightAware Approximate
01:38PM 38.4292 -77.3542 360° North 305 351 7,600  Level Washington Center
01:39PM 38.5106 -77.3614 356° North 294 338 6,000 -1,320 Descending Washington Center
01:40PM 38.5875 -77.3633 359° North 287 330 5,000 -840 Descending Washington Center
01:41PM 38.6667 -77.3667 358° North 277 319 4,400 -300 Descending Potomac TRACON
01:43PM 38.7966 -77.3500 North  Level FlightAware Approximate
01:44PM 38.8833 -77.3500 191° South 274 315 4,000  Level Potomac TRACON
01:45PM 38.9667 -77.3500 360° North 266 306 3,600 -540 Descending Potomac TRACON
01:46PM 39.0333 -77.3500 360° North 236 272 3,000 -300 Descending Potomac TRACON
01:47PM 39.0667 -77.4000 311° West 202 232 3,000 -600 Level Potomac TRACON
01:48PM 39.0333 -77.4333 218° Southwest 190 219 1,900 -1,020 Descending Potomac TRACON
01:49PM 38.9833 -77.4333 180° South 137 158 1,000 -900 Descending Potomac TRACON
01:50PM 38.9333 -77.4500 191° South  Level FlightAware Approximate
01:51PM 38.9474 -77.4599 191° South  Level Estimated
01:58PM 38.9474 -77.4599 191° South  Level Estimated
01:59PM 38.9474 -77.4599 191° South  Level Estimated
02:00PM 38.9474 -77.4599 191° South  Level Estimated
02:01PM 38.9474 -77.4599 191° South  Level Estimated